createdAt,value
2017-11-29T00:02:16.166Z,100023.52
2017-11-29T00:04:43.864Z,100022.78
2017-11-29T00:07:11.526Z,100020.84
2017-11-29T00:09:39.153Z,100019.47
2017-11-29T00:12:06.756Z,100024.67
2017-11-29T00:14:34.394Z,100020.39
2017-11-29T00:17:02.005Z,100032.22
2017-11-29T00:19:29.696Z,100033.05
2017-11-29T00:21:57.372Z,100031.66
2017-11-29T00:24:25.045Z,100034.02
2017-11-29T00:26:52.697Z,100036.50
2017-11-29T00:29:20.383Z,100037.74
2017-11-29T00:31:47.997Z,100029.31
2017-11-29T00:34:15.704Z,100034.52
2017-11-29T00:36:43.365Z,100030.38
2017-11-29T00:39:11.081Z,100032.59
2017-11-29T00:41:38.730Z,100033.97
2017-11-29T00:44:06.344Z,100035.91
2017-11-29T00:46:33.989Z,100035.91
2017-11-29T00:49:01.637Z,100042.80
2017-11-29T00:51:29.251Z,100040.36
2017-11-29T00:53:56.915Z,100047.36
2017-11-29T00:56:24.619Z,100043.22
2017-11-29T00:58:52.380Z,100045.70
2017-11-29T01:01:20.100Z,100045.30
2017-11-29T01:03:47.800Z,100044.19
2017-11-29T01:06:15.473Z,100042.66
2017-11-29T01:08:43.154Z,100042.49
2017-11-29T01:11:10.851Z,100042.49
2017-11-29T01:13:38.457Z,100053.30
2017-11-29T01:16:06.092Z,100052.61
2017-11-29T01:18:33.689Z,100049.84
2017-11-29T01:21:01.325Z,100051.09
2017-11-29T01:23:28.995Z,100048.98
2017-11-29T01:25:56.734Z,100055.97
2017-11-29T01:28:24.336Z,100060.11
2017-11-29T01:30:52.023Z,100054.92
2017-11-29T01:33:19.676Z,100048.38
2017-11-29T01:35:47.304Z,100051.31
2017-11-29T01:38:14.953Z,100057.70
2017-11-29T01:40:43.489Z,100054.06
2017-11-29T01:43:11.132Z,100056.83
2017-11-29T01:45:38.730Z,100049.27
2017-11-29T01:48:06.360Z,100049.55
2017-11-29T01:50:33.940Z,100045.41
2017-11-29T01:53:01.601Z,100047.52
2017-11-29T01:55:29.257Z,100055.07
2017-11-29T01:57:56.880Z,100047.66
2017-11-29T02:00:24.561Z,100048.48
2017-11-29T02:02:52.265Z,100059.21
2017-11-29T02:05:19.860Z,100054.10
2017-11-29T02:07:47.549Z,100059.80
2017-11-29T02:10:15.212Z,100055.90
2017-11-29T02:12:42.844Z,100060.91
2017-11-29T02:15:10.943Z,100059.94
2017-11-29T02:17:38.573Z,100051.34
2017-11-29T02:20:06.200Z,100055.66
2017-11-29T02:22:33.847Z,100054.28
2017-11-29T02:25:01.469Z,100058.14
2017-11-29T02:27:29.107Z,100053.28
2017-11-29T02:29:56.722Z,100060.59
2017-11-29T02:32:24.401Z,100058.24
2017-11-29T02:34:52.071Z,100053.28
2017-11-29T02:37:19.738Z,100055.66
2017-11-29T02:39:59.195Z,100058.14
2017-11-29T02:42:37.716Z,100060.08
2017-11-29T02:45:05.426Z,100062.28
2017-11-29T02:47:33.053Z,100061.32
2017-11-29T02:50:00.874Z,100064.77
2017-11-29T02:52:28.550Z,100067.84
2017-11-29T02:54:56.193Z,100062.64
2017-11-29T02:57:23.922Z,100068.44
2017-11-29T02:59:51.623Z,100063.78
2017-11-29T03:02:19.306Z,100065.58
2017-11-29T03:04:46.992Z,100072.52
2017-11-29T03:07:14.613Z,100073.17
2017-11-29T03:09:42.301Z,100066.03
2017-11-29T03:12:09.908Z,100073.21
2017-11-29T03:14:37.562Z,100077.94
2017-11-29T03:17:05.179Z,100068.97
2017-11-29T03:19:32.854Z,100071.08
2017-11-29T03:22:00.446Z,100076.19
2017-11-29T03:24:28.078Z,100074.39
2017-11-29T03:26:55.663Z,100072.05
2017-11-29T03:29:23.285Z,100076.19
2017-11-29T03:31:50.933Z,100069.84
2017-11-29T03:34:18.643Z,100075.50
2017-11-29T03:36:46.250Z,100079.81
2017-11-29T03:39:13.826Z,100072.95
2017-11-29T03:41:41.453Z,100071.84
2017-11-29T03:44:09.055Z,100075.98
2017-11-29T03:46:36.683Z,100074.51
2017-11-29T03:49:04.267Z,100078.64
2017-11-29T03:51:31.900Z,100081.55
2017-11-29T03:53:59.502Z,100083.89
2017-11-29T03:56:27.126Z,100077.95
2017-11-29T03:58:54.731Z,100082.51
2017-11-29T04:01:22.427Z,100082.69
2017-11-29T04:03:50.100Z,100086.86
2017-11-29T04:06:17.738Z,100087.27
2017-11-29T04:08:45.413Z,100084.52
2017-11-29T04:11:13.077Z,100088.06
2017-11-29T04:13:40.690Z,100085.20
2017-11-29T04:16:08.360Z,100083.00
2017-11-29T04:18:35.951Z,100086.34
2017-11-29T04:21:03.597Z,100091.03
2017-11-29T04:23:31.268Z,100087.86
2017-11-29T04:25:58.903Z,100090.63
2017-11-29T04:28:26.511Z,100088.41
2017-11-29T04:30:54.150Z,100088.69
2017-11-29T04:33:21.761Z,100091.03
2017-11-29T04:35:49.449Z,100093.80
2017-11-29T04:38:17.054Z,100090.76
2017-11-29T04:40:44.644Z,100091.03
2017-11-29T04:43:12.284Z,100094.76
2017-11-29T04:45:39.877Z,100093.38
2017-11-29T04:48:07.503Z,100092.14
2017-11-29T04:50:35.161Z,100094.24
2017-11-29T04:53:02.821Z,100098.38
2017-11-29T04:55:30.520Z,100094.07
2017-11-29T04:57:58.167Z,100102.34
2017-11-29T05:00:25.777Z,100099.59
2017-11-29T05:02:53.422Z,100102.24
2017-11-29T05:05:21.041Z,100099.90
2017-11-29T05:07:48.752Z,100103.62
2017-11-29T05:10:16.349Z,100102.11
2017-11-29T05:12:44.049Z,100104.59
2017-11-29T05:15:11.668Z,100101.55
2017-11-29T05:17:39.296Z,100103.07
2017-11-29T05:20:06.890Z,100109.28
2017-11-29T05:22:34.602Z,100105.45
2017-11-29T05:25:02.193Z,100108.35
2017-11-29T05:27:29.912Z,100114.28
2017-11-29T05:29:57.502Z,100114.55
2017-11-29T05:32:25.278Z,100105.04
2017-11-29T05:34:52.880Z,100111.52
2017-11-29T05:37:20.478Z,100109.73
2017-11-29T05:39:48.187Z,100113.21
2017-11-29T05:42:15.817Z,100111.97
2017-11-29T05:44:43.471Z,100108.56
2017-11-29T05:47:11.115Z,100114.48
2017-11-29T05:49:38.770Z,100119.17
2017-11-29T05:52:06.372Z,100117.94
2017-11-29T05:54:34.088Z,100124.56
2017-11-29T05:57:01.712Z,100122.39
2017-11-29T05:59:29.401Z,100127.21
2017-11-29T06:01:57.010Z,100128.45
2017-11-29T06:04:24.679Z,100131.11
2017-11-29T06:06:52.299Z,100130.70
2017-11-29T06:09:19.943Z,100134.55
2017-11-29T06:11:47.564Z,100132.11
2017-11-29T06:14:15.209Z,100140.38
2017-11-29T06:16:42.807Z,100139.69
2017-11-29T06:19:10.456Z,100137.62
2017-11-29T06:21:38.287Z,100139.41
2017-11-29T06:24:05.920Z,100143.69
2017-11-29T06:26:33.603Z,100140.94
2017-11-29T06:29:02.689Z,100143.41
2017-11-29T06:31:30.319Z,100141.69
2017-11-29T06:33:57.989Z,100146.79
2017-11-29T06:36:25.590Z,100148.83
2017-11-29T06:38:53.233Z,100159.86
2017-11-29T06:41:20.826Z,100156.27
2017-11-29T06:43:48.425Z,100149.13
2017-11-29T06:46:16.060Z,100157.41
2017-11-29T06:48:43.657Z,100162.20
2017-11-29T06:51:13.088Z,100164.00
2017-11-29T06:53:41.783Z,100170.75
2017-11-29T06:56:09.430Z,100172.13
2017-11-29T06:58:37.031Z,100171.72
2017-11-29T07:01:04.688Z,100176.96
2017-11-29T07:03:32.290Z,100175.58
2017-11-29T07:05:59.926Z,100177.13
2017-11-29T07:08:27.601Z,100182.23
2017-11-29T07:10:55.325Z,100185.55
2017-11-29T07:13:23.065Z,100189.68
2017-11-29T07:15:50.800Z,100189.68
2017-11-29T07:18:18.404Z,100185.55
2017-11-29T07:20:46.040Z,100191.61
2017-11-29T07:23:13.645Z,100198.78
2017-11-29T07:25:41.293Z,100201.54
2017-11-29T07:28:08.949Z,100205.12
2017-11-29T07:30:36.673Z,100206.89
2017-11-29T07:33:04.293Z,100211.44
2017-11-29T07:35:31.978Z,100202.75
2017-11-29T07:37:59.612Z,100210.23
2017-11-29T07:40:27.195Z,100208.68
2017-11-29T07:42:54.868Z,100207.58
2017-11-29T07:45:22.526Z,100209.51
2017-11-29T07:47:50.222Z,100213.51
2017-11-29T07:50:17.874Z,100215.74
2017-11-29T07:52:45.565Z,100215.72
2017-11-29T07:55:13.231Z,100218.45
2017-11-29T07:57:41.384Z,100220.17
2017-11-29T08:00:09.070Z,100212.83
2017-11-29T08:02:36.804Z,100219.48
2017-11-29T08:05:04.825Z,100222.22
2017-11-29T08:07:32.534Z,100220.25
2017-11-29T08:10:00.210Z,100229.47
2017-11-29T08:12:27.915Z,100231.23
2017-11-29T08:14:55.586Z,100230.09
2017-11-29T08:17:23.378Z,100232.66
2017-11-29T08:19:51.054Z,100234.55
2017-11-29T08:22:18.772Z,100235.48
2017-11-29T08:24:46.438Z,100231.59
2017-11-29T08:27:14.185Z,100238.19
2017-11-29T08:29:41.849Z,100230.42
2017-11-29T08:32:10.430Z,100237.73
2017-11-29T08:34:39.106Z,100238.81
2017-11-29T08:37:06.815Z,100240.81
2017-11-29T08:39:34.564Z,100250.61
2017-11-29T08:42:03.059Z,100247.58
2017-11-29T08:44:30.838Z,100249.23
2017-11-29T08:46:58.552Z,100250.81
2017-11-29T08:49:26.299Z,100258.30
2017-11-29T08:51:53.963Z,100253.05
2017-11-29T08:54:21.676Z,100254.61
2017-11-29T08:56:49.376Z,100259.27
2017-11-29T08:59:17.021Z,100258.71
2017-11-29T09:01:44.676Z,100256.66
2017-11-29T09:04:12.426Z,100262.94
2017-11-29T09:06:40.034Z,100259.01
2017-11-29T09:09:07.692Z,100260.98
2017-11-29T09:11:35.366Z,100262.67
2017-11-29T09:14:03.052Z,100266.57
2017-11-29T09:16:30.712Z,100265.73
2017-11-29T09:18:58.368Z,100261.06
2017-11-29T09:21:25.977Z,100262.97
2017-11-29T09:23:53.680Z,100272.67
2017-11-29T09:26:21.345Z,100263.97
2017-11-29T09:28:49.190Z,100268.08
2017-11-29T09:31:16.861Z,100270.11
2017-11-29T09:33:44.589Z,100267.41
2017-11-29T09:36:12.280Z,100274.01
2017-11-29T09:38:39.944Z,100269.48
2017-11-29T09:41:07.670Z,100267.55
2017-11-29T09:43:35.381Z,100257.91
2017-11-29T09:46:03.105Z,100263.06
2017-11-29T09:48:30.756Z,100259.75
2017-11-29T09:50:58.508Z,100270.79
2017-11-29T09:53:26.242Z,100261.37
2017-11-29T09:55:54.009Z,100265.59
2017-11-29T09:58:21.697Z,100266.94
2017-11-29T10:00:49.365Z,100275.38
2017-11-29T10:03:16.963Z,100265.88
2017-11-29T10:05:44.611Z,100275.58
2017-11-29T10:08:12.316Z,100274.92
2017-11-29T10:10:40.009Z,100268.61
2017-11-29T10:13:07.655Z,100274.37
2017-11-29T10:15:35.384Z,100274.75
2017-11-29T10:18:03.068Z,100269.71
2017-11-29T10:20:30.736Z,100274.65
2017-11-29T10:22:58.439Z,100274.20
2017-11-29T10:25:26.183Z,100275.52
2017-11-29T10:27:53.919Z,100274.51
2017-11-29T10:30:21.588Z,100277.06
2017-11-29T10:32:49.309Z,100271.44
2017-11-29T10:35:16.995Z,100264.60
2017-11-29T10:37:44.716Z,100267.30
2017-11-29T10:40:12.374Z,100271.44
2017-11-29T10:42:40.076Z,100269.53
2017-11-29T10:45:07.734Z,100266.29
2017-11-29T10:47:35.461Z,100261.73
2017-11-29T10:50:03.142Z,100261.73
2017-11-29T10:52:30.888Z,100263.87
2017-11-29T10:54:58.562Z,100260.07
2017-11-29T10:57:26.199Z,100263.23
2017-11-29T10:59:53.885Z,100266.55
2017-11-29T11:02:21.585Z,100256.42
2017-11-29T11:04:49.265Z,100265.92
2017-11-29T11:07:17.054Z,100260.92
2017-11-29T11:09:44.877Z,100267.73
2017-11-29T11:12:12.614Z,100272.47
2017-11-29T11:14:40.361Z,100266.47
2017-11-29T11:17:08.057Z,100274.09
2017-11-29T11:19:35.726Z,100265.59
2017-11-29T11:22:03.386Z,100269.88
2017-11-29T11:24:31.212Z,100270.07
2017-11-29T11:26:58.983Z,100268.27
2017-11-29T11:29:26.730Z,100272.66
2017-11-29T11:31:54.412Z,100273.11
2017-11-29T11:34:22.126Z,100272.11
2017-11-29T11:36:49.809Z,100273.31
2017-11-29T11:39:17.528Z,100273.45
2017-11-29T11:41:45.332Z,100265.92
2017-11-29T11:44:13.113Z,100266.20
2017-11-29T11:46:40.762Z,100269.97
2017-11-29T11:49:08.531Z,100260.75
2017-11-29T11:51:36.243Z,100269.05
2017-11-29T11:54:03.836Z,100265.80
2017-11-29T11:56:31.549Z,100271.17
2017-11-29T11:58:59.259Z,100266.89
2017-11-29T12:01:27.015Z,100270.38
2017-11-29T12:03:54.679Z,100267.58
2017-11-29T12:06:22.390Z,100271.00
2017-11-29T12:08:50.100Z,100270.70
2017-11-29T12:11:17.809Z,100268.98
2017-11-29T12:13:45.417Z,100270.81
2017-11-29T12:16:13.129Z,100275.37
2017-11-29T12:18:40.735Z,100277.20
2017-11-29T12:21:08.451Z,100271.67
2017-11-29T12:23:36.131Z,100277.65
2017-11-29T12:26:03.813Z,100275.02
2017-11-29T12:28:31.423Z,100277.48
2017-11-29T12:30:59.177Z,100271.78
2017-11-29T12:33:26.866Z,100272.56
2017-11-29T12:35:54.593Z,100275.75
2017-11-29T12:38:22.262Z,100271.09
2017-11-29T12:40:49.982Z,100267.59
2017-11-29T12:43:17.659Z,100265.94
2017-11-29T12:45:45.319Z,100260.14
2017-11-29T12:48:24.715Z,100267.14
2017-11-29T12:51:04.057Z,100261.20
2017-11-29T12:53:31.803Z,100267.45
2017-11-29T12:55:59.469Z,100268.11
2017-11-29T12:58:27.226Z,100269.22
2017-11-29T13:00:54.899Z,100268.94
2017-11-29T13:03:22.560Z,100263.45
2017-11-29T13:05:50.257Z,100270.95
2017-11-29T13:08:17.979Z,100273.34
2017-11-29T13:10:45.689Z,100273.78
2017-11-29T13:13:13.406Z,100269.61
2017-11-29T13:15:41.098Z,100265.98
2017-11-29T13:18:08.771Z,100271.13
2017-11-29T13:20:36.459Z,100270.84
2017-11-29T13:23:04.215Z,100272.64
2017-11-29T13:25:31.900Z,100277.23
2017-11-29T13:27:59.680Z,100281.80
2017-11-29T13:30:27.397Z,100275.68
2017-11-29T13:32:55.117Z,100279.06
2017-11-29T13:35:22.724Z,100274.41
2017-11-29T13:37:50.426Z,100274.16
2017-11-29T13:40:18.110Z,100276.66
2017-11-29T13:42:45.818Z,100277.79
2017-11-29T13:45:13.487Z,100282.80
2017-11-29T13:47:41.190Z,100278.09
2017-11-29T13:50:08.890Z,100275.38
2017-11-29T13:52:36.589Z,100277.78
2017-11-29T13:55:04.260Z,100280.86
2017-11-29T13:57:32.029Z,100282.69
2017-11-29T13:59:59.736Z,100288.99
2017-11-29T14:02:27.438Z,100288.53
2017-11-29T14:04:55.147Z,100296.47
2017-11-29T14:07:22.809Z,100292.80
2017-11-29T14:09:50.550Z,100294.45
2017-11-29T14:12:18.441Z,100298.59
2017-11-29T14:14:46.108Z,100294.63
2017-11-29T14:17:13.814Z,100297.49
2017-11-29T14:19:41.472Z,100297.91
2017-11-29T14:22:09.207Z,100297.46
2017-11-29T14:24:36.876Z,100298.70
2017-11-29T14:27:04.569Z,100297.33
2017-11-29T14:29:32.243Z,100303.64
2017-11-29T14:31:59.832Z,100301.47
2017-11-29T14:34:27.468Z,100300.77
2017-11-29T14:36:55.056Z,100300.11
2017-11-29T14:39:22.689Z,100302.19
2017-11-29T14:41:50.336Z,100295.03
2017-11-29T14:44:18.068Z,100303.45
2017-11-29T14:46:45.648Z,100305.97
2017-11-29T14:49:13.338Z,100307.38
2017-11-29T14:51:41.038Z,100302.71
2017-11-29T14:54:08.743Z,100308.13
2017-11-29T14:56:36.402Z,100299.59
2017-11-29T14:59:04.177Z,100300.02
2017-11-29T15:01:31.882Z,100302.94
2017-11-29T15:03:59.617Z,100299.77
2017-11-29T15:06:27.302Z,100304.31
2017-11-29T15:08:55.007Z,100304.31
2017-11-29T15:11:22.638Z,100303.77
2017-11-29T15:13:50.261Z,100303.93
2017-11-29T15:16:17.867Z,100304.90
2017-11-29T15:18:45.549Z,100304.06
2017-11-29T15:21:13.217Z,100301.34
2017-11-29T15:23:40.842Z,100301.34
2017-11-29T15:26:08.450Z,100299.68
2017-11-29T15:28:36.203Z,100305.09
2017-11-29T15:31:03.839Z,100302.77
2017-11-29T15:33:33.089Z,100296.03
2017-11-29T15:36:00.787Z,100302.02
2017-11-29T15:38:28.383Z,100305.94
2017-11-29T15:40:56.004Z,100305.41
2017-11-29T15:43:23.652Z,100308.99
2017-11-29T15:45:51.293Z,100306.95
2017-11-29T15:48:18.976Z,100306.15
2017-11-29T15:50:46.680Z,100302.86
2017-11-29T15:53:14.343Z,100308.95
2017-11-29T15:55:42.001Z,100308.84
2017-11-29T15:58:09.716Z,100307.08
2017-11-29T16:00:37.443Z,100309.30
2017-11-29T16:03:05.102Z,100307.23
2017-11-29T16:05:32.810Z,100313.05
2017-11-29T16:08:00.482Z,100312.39
2017-11-29T16:10:28.223Z,100314.86
2017-11-29T16:12:55.852Z,100313.62
2017-11-29T16:15:23.501Z,100311.58
2017-11-29T16:17:51.121Z,100316.68
2017-11-29T16:20:18.769Z,100319.72
2017-11-29T16:22:46.431Z,100320.52
2017-11-29T16:25:14.162Z,100314.86
2017-11-29T16:27:41.890Z,100314.31
2017-11-29T16:30:09.672Z,100315.70
2017-11-29T16:32:37.339Z,100312.94
2017-11-29T16:35:05.029Z,100310.31
2017-11-29T16:37:32.790Z,100306.73
2017-11-29T16:40:00.468Z,100314.45
2017-11-29T16:42:28.193Z,100310.86
2017-11-29T16:44:55.894Z,100313.62
2017-11-29T16:47:23.614Z,100314.59
2017-11-29T16:49:51.299Z,100312.83
2017-11-29T16:52:18.999Z,100312.00
2017-11-29T16:54:46.670Z,100310.86
2017-11-29T16:57:14.388Z,100301.38
2017-11-29T16:59:42.072Z,100307.86
2017-11-29T17:02:09.781Z,100306.48
2017-11-29T17:04:37.472Z,100306.75
2017-11-29T17:07:05.198Z,100302.92
2017-11-29T17:09:32.885Z,100307.73
2017-11-29T17:12:00.619Z,100305.03
2017-11-29T17:14:28.265Z,100301.06
2017-11-29T17:16:55.976Z,100306.73
2017-11-29T17:19:23.605Z,100309.11
2017-11-29T17:21:51.281Z,100309.30
2017-11-29T17:24:19.009Z,100307.66
2017-11-29T17:26:46.675Z,100302.72
2017-11-29T17:29:14.312Z,100308.41
2017-11-29T17:31:42.054Z,100303.19
2017-11-29T17:34:09.759Z,100303.62
2017-11-29T17:36:37.382Z,100309.02
2017-11-29T17:39:05.116Z,100308.91
2017-11-29T17:41:32.779Z,100308.63
2017-11-29T17:44:00.479Z,100307.94
2017-11-29T17:46:28.148Z,100312.19
2017-11-29T17:48:55.837Z,100303.79
2017-11-29T17:51:23.540Z,100312.72
2017-11-29T17:53:51.297Z,100310.36
2017-11-29T17:56:18.984Z,100305.13
2017-11-29T17:58:46.748Z,100311.02
2017-11-29T18:01:14.383Z,100314.17
2017-11-29T18:03:42.036Z,100313.73
2017-11-29T18:06:09.692Z,100315.40
2017-11-29T18:08:37.396Z,100318.02
2017-11-29T18:11:05.056Z,100309.04
2017-11-29T18:13:32.740Z,100315.66
2017-11-29T18:16:00.417Z,100315.77
2017-11-29T18:18:28.090Z,100310.38
2017-11-29T18:20:55.825Z,100314.63
2017-11-29T18:23:23.499Z,100312.81
2017-11-29T18:25:51.180Z,100317.64
2017-11-29T18:28:18.794Z,100317.64
2017-11-29T18:30:46.449Z,100314.88
2017-11-29T18:33:14.077Z,100316.67
2017-11-29T18:35:41.723Z,100315.84
2017-11-29T18:38:09.332Z,100319.87
2017-11-29T18:40:36.975Z,100318.08
2017-11-29T18:43:04.639Z,100323.72
2017-11-29T18:45:32.345Z,100323.17
2017-11-29T18:48:00.028Z,100326.89
2017-11-29T18:50:27.744Z,100321.81
2017-11-29T18:52:55.410Z,100326.50
2017-11-29T18:55:23.048Z,100331.34
2017-11-29T18:57:50.755Z,100328.45
2017-11-29T19:00:18.468Z,100322.14
2017-11-29T19:02:46.147Z,100327.09
2017-11-29T19:05:13.823Z,100325.73
2017-11-29T19:07:41.481Z,100322.30
2017-11-29T19:10:09.136Z,100324.22
2017-11-29T19:12:36.885Z,100319.65
2017-11-29T19:15:04.554Z,100313.31
2017-11-29T19:17:32.257Z,100322.95
2017-11-29T19:19:59.849Z,100321.87
2017-11-29T19:22:27.487Z,100326.55
2017-11-29T19:24:55.170Z,100328.09
2017-11-29T19:27:22.905Z,100329.08
2017-11-29T19:29:50.588Z,100330.86
2017-11-29T19:32:18.311Z,100339.39
2017-11-29T19:34:45.962Z,100336.82
2017-11-29T19:37:13.696Z,100333.70
2017-11-29T19:39:41.319Z,100333.98
2017-11-29T19:42:09.037Z,100335.81
2017-11-29T19:44:36.711Z,100338.78
2017-11-29T19:47:04.417Z,100340.87
2017-11-29T19:49:32.092Z,100347.78
2017-11-29T19:51:59.805Z,100349.48
2017-11-29T19:54:27.400Z,100346.63
2017-11-29T19:56:55.100Z,100344.02
2017-11-29T19:59:22.796Z,100340.88
2017-11-29T20:01:50.623Z,100339.54
2017-11-29T20:04:18.293Z,100340.55
2017-11-29T20:06:46.004Z,100340.56
2017-11-29T20:09:13.666Z,100342.07
2017-11-29T20:11:41.370Z,100341.79
2017-11-29T20:14:09.082Z,100342.09
2017-11-29T20:16:36.734Z,100340.73
2017-11-29T20:19:04.454Z,100342.66
2017-11-29T20:21:32.045Z,100348.45
2017-11-29T20:23:59.790Z,100348.17
2017-11-29T20:26:27.465Z,100344.74
2017-11-29T20:28:55.153Z,100352.17
2017-11-29T20:31:22.820Z,100349.84
2017-11-29T20:33:50.496Z,100344.48
2017-11-29T20:36:18.174Z,100347.41
2017-11-29T20:38:45.896Z,100336.25
2017-11-29T20:41:13.554Z,100339.30
2017-11-29T20:43:41.308Z,100339.18
2017-11-29T20:46:08.992Z,100337.95
2017-11-29T20:48:36.666Z,100339.08
2017-11-29T20:51:04.381Z,100336.47
2017-11-29T20:53:32.017Z,100333.45
2017-11-29T20:55:59.730Z,100335.82
2017-11-29T20:58:27.436Z,100334.16
2017-11-29T21:00:55.122Z,100331.42
2017-11-29T21:03:22.718Z,100337.05
2017-11-29T21:05:50.429Z,100334.71
2017-11-29T21:08:18.114Z,100331.70
2017-11-29T21:10:45.824Z,100334.29
2017-11-29T21:13:13.483Z,100333.08
2017-11-29T21:15:41.141Z,100332.50
2017-11-29T21:18:08.768Z,100330.70
2017-11-29T21:20:36.434Z,100329.06
2017-11-29T21:23:04.036Z,100332.48
2017-11-29T21:25:31.688Z,100333.60
2017-11-29T21:27:59.292Z,100334.56
2017-11-29T21:30:26.922Z,100334.14
2017-11-29T21:32:54.587Z,100335.63
2017-11-29T21:35:22.232Z,100328.62
2017-11-29T21:37:49.832Z,100320.77
2017-11-29T21:40:17.489Z,100328.03
2017-11-29T21:42:45.093Z,100327.89
2017-11-29T21:45:12.697Z,100322.25
2017-11-29T21:47:40.363Z,100323.75
2017-11-29T21:50:08.002Z,100323.45
2017-11-29T21:52:35.781Z,100320.02
2017-11-29T21:55:04.686Z,100317.27
2017-11-29T21:57:32.844Z,100319.31
2017-11-29T22:00:00.564Z,100311.77
2017-11-29T22:02:28.194Z,100316.18
2017-11-29T22:04:55.998Z,100319.89
2017-11-29T22:07:23.704Z,100320.57
2017-11-29T22:09:51.370Z,100325.40
2017-11-29T22:12:19.002Z,100317.94
2017-11-29T22:14:46.606Z,100314.92
2017-11-29T22:17:14.369Z,100316.55
2017-11-29T22:19:41.965Z,100320.12
2017-11-29T22:22:09.682Z,100325.08
2017-11-29T22:24:37.348Z,100324.53
2017-11-29T22:27:05.066Z,100317.11
2017-11-29T22:29:32.741Z,100325.06
2017-11-29T22:32:00.455Z,100324.52
2017-11-29T22:34:28.114Z,100322.73
2017-11-29T22:36:55.783Z,100315.85
2017-11-29T22:39:23.485Z,100315.85
2017-11-29T22:41:51.143Z,100309.52
2017-11-29T22:44:18.857Z,100308.01
2017-11-29T22:46:47.071Z,100310.89
2017-11-29T22:49:14.775Z,100305.27
2017-11-29T22:51:42.383Z,100310.59
2017-11-29T22:54:10.085Z,100305.52
2017-11-29T22:56:37.788Z,100300.84
2017-11-29T22:59:05.541Z,100297.13
2017-11-29T23:01:33.203Z,100302.34
2017-11-29T23:04:00.853Z,100304.14
2017-11-29T23:06:28.499Z,100303.30
2017-11-29T23:08:56.557Z,100297.55
2017-11-29T23:11:24.222Z,100297.98
2017-11-29T23:13:51.956Z,100290.40
2017-11-29T23:16:19.686Z,100284.90
2017-11-29T23:18:47.417Z,100292.73
2017-11-29T23:21:15.111Z,100290.56
2017-11-29T23:23:42.778Z,100298.52
2017-11-29T23:26:10.489Z,100301.14
2017-11-29T23:28:38.245Z,100296.19
2017-11-29T23:31:05.917Z,100283.81
2017-11-29T23:33:33.579Z,100276.80
2017-11-29T23:36:01.273Z,100281.89
2017-11-29T23:38:28.926Z,100278.31
2017-11-29T23:40:56.663Z,100275.27
2017-11-29T23:43:24.250Z,100280.77
2017-11-29T23:45:51.950Z,100277.34
2017-11-29T23:48:19.551Z,100278.59
2017-11-29T23:50:47.267Z,100277.05
2017-11-29T23:53:14.939Z,100281.34
2017-11-29T23:55:42.644Z,100269.75
2017-11-29T23:58:11.473Z,100273.47
